Time;durP1;ratioP1;P1;durP2;ratioP2;P2;SDS_P1;SDS_P2;PMS_P1;PMS_P2;Temp;Humidity;BMP_temperature;BMP_pressure;BME280_temperature;BME280_humidity;BME280_pressure;Samples;Min_cycle;Max_cycle;Signal;HPM_P1;HPM_P2
2021/07/16 00:02:25;;;;;;;21.27;10.05;;;17.90;99.90;;;;;;5081887;28;20110;-88
2021/07/16 00:05:13;;;;;;;20.05;9.23;;;17.90;99.90;;;;;;5080785;28;20131;-86
2021/07/16 00:08:00;;;;;;;27.40;9.27;;;18.00;99.90;;;;;;5081151;28;20040;-86
2021/07/16 00:10:49;;;;;;;19.20;9.35;;;18.10;99.90;;;;;;5081807;28;20044;-86
2021/07/16 00:13:37;;;;;;;28.00;8.63;;;18.10;99.90;;;;;;5087144;28;20050;-87
2021/07/16 00:16:25;;;;;;;26.00;9.13;;;18.20;99.90;;;;;;5100827;28;20417;-86
2021/07/16 00:19:13;;;;;;;22.52;8.65;;;18.20;99.90;;;;;;5101299;28;20121;-88
2021/07/16 00:22:00;;;;;;;21.17;9.05;;;18.00;99.90;;;;;;5100432;28;20123;-88
2021/07/16 00:24:47;;;;;;;31.67;9.82;;;17.90;99.90;;;;;;5101618;28;20433;-87
2021/07/16 00:27:35;;;;;;;23.17;9.13;;;17.80;99.90;;;;;;5100631;28;20036;-87
2021/07/16 00:30:23;;;;;;;25.95;9.38;;;17.70;99.90;;;;;;5101371;28;20036;-88
2021/07/16 00:33:10;;;;;;;23.05;9.18;;;17.80;99.90;;;;;;5101732;28;20054;-87
2021/07/16 00:35:58;;;;;;;25.65;9.25;;;17.70;99.90;;;;;;5116511;28;20043;-86
2021/07/16 00:38:45;;;;;;;30.08;9.68;;;17.80;99.90;;;;;;5100807;28;20051;-87
2021/07/16 00:41:33;;;;;;;26.05;9.23;;;17.90;99.90;;;;;;5116409;28;20039;-86
2021/07/16 00:44:20;;;;;;;25.08;9.45;;;17.90;99.90;;;;;;5101442;28;20047;-88
2021/07/16 00:47:08;;;;;;;29.15;9.13;;;17.90;99.90;;;;;;5116798;28;20054;-87
2021/07/16 00:49:55;;;;;;;22.80;8.45;;;17.80;99.90;;;;;;5100001;28;20047;-85
2021/07/16 00:52:44;;;;;;;25.88;8.35;;;17.70;99.90;;;;;;5101323;28;20169;-86
2021/07/16 00:55:32;;;;;;;27.17;8.73;;;17.70;99.90;;;;;;5099899;28;20100;-85
2021/07/16 00:58:20;;;;;;;23.75;8.65;;;17.50;99.90;;;;;;5100655;28;20127;-86
2021/07/16 01:01:07;;;;;;;28.08;9.15;;;17.60;99.90;;;;;;5100417;28;20047;-87
2021/07/16 01:03:54;;;;;;;24.17;8.65;;;17.50;99.90;;;;;;5100168;28;20067;-84
2021/07/16 01:06:42;;;;;;;22.42;8.55;;;17.60;99.90;;;;;;5099718;28;20121;-84
2021/07/16 01:09:30;;;;;;;22.10;8.90;;;17.50;99.90;;;;;;5100415;28;20050;-89
2021/07/16 01:12:19;;;;;;;19.35;8.68;;;17.30;99.90;;;;;;5101500;28;20161;-89
2021/07/16 01:15:08;;;;;;;27.35;8.80;;;17.30;99.90;;;;;;5100557;28;20058;-89
2021/07/16 01:17:56;;;;;;;27.75;9.32;;;17.30;99.90;;;;;;5099860;28;20153;-89
2021/07/16 01:20:44;;;;;;;20.92;8.27;;;17.20;99.90;;;;;;5100189;28;20048;-89
2021/07/16 01:23:32;;;;;;;22.98;9.75;;;17.10;99.90;;;;;;5115778;28;20544;-86
2021/07/16 01:26:19;;;;;;;24.13;9.63;;;17.10;99.90;;;;;;5099846;28;20050;-88
2021/07/16 01:29:07;;;;;;;17.02;8.95;;;17.00;99.90;;;;;;5113924;28;20044;-88
2021/07/16 01:31:54;;;;;;;19.13;8.32;;;17.10;99.90;;;;;;5099941;28;20047;-87
2021/07/16 01:34:43;;;;;;;22.38;9.00;;;17.20;99.90;;;;;;5101111;28;20050;-89
2021/07/16 01:37:30;;;;;;;28.17;10.13;;;17.20;99.90;;;;;;5100271;28;20044;-87
2021/07/16 01:40:20;;;;;;;27.10;10.57;;;17.20;99.90;;;;;;5076774;28;20073;-90
2021/07/16 01:43:10;;;;;;;25.23;10.18;;;17.20;99.90;;;;;;5060571;28;20131;-90
2021/07/16 01:45:58;;;;;;;27.40;11.02;;;17.20;99.90;;;;;;5059733;28;20550;-88
2021/07/16 01:48:46;;;;;;;23.55;10.15;;;17.10;99.90;;;;;;5060664;28;20125;-87
2021/07/16 01:51:33;;;;;;;27.02;9.90;;;17.20;99.90;;;;;;5059480;28;20250;-89
2021/07/16 01:54:20;;;;;;;18.15;9.68;;;17.10;99.90;;;;;;5058186;28;20132;-89
2021/07/16 01:57:09;;;;;;;19.98;10.50;;;17.00;99.90;;;;;;5057663;28;20090;-87
2021/07/16 01:59:56;;;;;;;22.38;9.73;;;17.00;99.90;;;;;;5058392;28;20127;-89
2021/07/16 02:02:48;;;;;;;23.48;10.18;;;16.90;99.90;;;;;;5058589;28;20573;-86
2021/07/16 02:05:38;;;;;;;21.27;9.23;;;16.90;99.90;;;;;;5058712;28;20048;-86
2021/07/16 02:08:26;;;;;;;19.65;8.50;;;16.90;99.90;;;;;;5058060;28;20044;-87
2021/07/16 02:11:13;;;;;;;18.85;9.07;;;17.00;99.90;;;;;;5057656;28;20087;-88
2021/07/16 02:14:02;;;;;;;20.70;9.85;;;17.00;99.90;;;;;;5058038;28;20470;-88
2021/07/16 02:16:49;;;;;;;18.23;8.23;;;16.90;99.90;;;;;;5073055;28;20044;-89
2021/07/16 02:19:36;;;;;;;21.38;9.15;;;16.80;99.90;;;;;;5072185;28;20044;-88
2021/07/16 02:22:24;;;;;;;23.00;8.40;;;16.90;99.90;;;;;;5057479;28;20072;-88
2021/07/16 02:25:12;;;;;;;17.15;8.35;;;16.80;99.90;;;;;;5072438;28;20564;-87
2021/07/16 02:28:01;;;;;;;19.40;9.25;;;16.60;99.90;;;;;;5058872;28;20052;-88
2021/07/16 02:30:52;;;;;;;26.60;8.97;;;16.70;99.90;;;;;;5057848;28;20086;-90
2021/07/16 02:33:40;;;;;;;19.92;8.80;;;16.70;99.90;;;;;;5057539;28;20793;-86
2021/07/16 02:36:27;;;;;;;18.23;8.93;;;16.80;99.90;;;;;;5058494;28;20523;-87
2021/07/16 02:39:14;;;;;;;20.20;8.60;;;16.90;99.90;;;;;;5057529;28;20055;-89
2021/07/16 02:42:02;;;;;;;20.40;9.32;;;16.90;99.90;;;;;;5072840;28;20141;-88
2021/07/16 02:44:49;;;;;;;23.60;10.32;;;16.70;99.90;;;;;;5058262;28;20048;-89
2021/07/16 02:47:38;;;;;;;19.52;9.93;;;16.70;99.90;;;;;;5058401;28;20446;-86
2021/07/16 02:50:27;;;;;;;21.30;10.45;;;16.70;99.90;;;;;;5057810;28;20052;-89
2021/07/16 02:53:16;;;;;;;19.80;10.48;;;16.70;99.90;;;;;;5058473;28;20637;-88
2021/07/16 02:56:04;;;;;;;24.85;10.57;;;16.70;99.90;;;;;;5071987;28;20577;-89
2021/07/16 02:58:51;;;;;;;21.17;10.50;;;16.70;99.90;;;;;;5057512;28;20076;-86
2021/07/16 03:01:52;;;;;;;17.70;10.60;;;16.60;99.90;;;;;;5073875;28;20102;-89
2021/07/16 03:04:42;;;;;;;25.02;11.43;;;16.60;99.90;;;;;;5058509;28;20044;-88
2021/07/16 03:07:29;;;;;;;25.15;11.18;;;16.60;99.90;;;;;;5058582;28;20049;-86
2021/07/16 03:10:18;;;;;;;21.60;10.90;;;16.50;99.90;;;;;;5057766;28;20171;-87
2021/07/16 03:13:08;;;;;;;21.42;11.30;;;16.50;99.90;;;;;;5058559;28;20080;-87
2021/07/16 03:15:55;;;;;;;20.70;10.50;;;16.60;99.90;;;;;;5057500;28;20048;-90
2021/07/16 03:18:42;;;;;;;17.33;10.35;;;16.70;99.90;;;;;;5057808;28;20041;-88
2021/07/16 03:21:31;;;;;;;21.98;10.90;;;16.70;99.90;;;;;;5072818;28;20072;-86
2021/07/16 03:24:19;;;;;;;20.52;10.70;;;16.70;99.90;;;;;;5058291;28;20123;-87
2021/07/16 03:27:06;;;;;;;26.35;10.63;;;16.70;99.90;;;;;;5057938;28;20048;-87
2021/07/16 03:29:53;;;;;;;19.08;10.18;;;16.70;99.90;;;;;;5058796;28;20124;-88
2021/07/16 03:32:40;;;;;;;20.33;11.07;;;16.60;99.90;;;;;;5072452;28;20074;-87
2021/07/16 03:35:28;;;;;;;21.42;10.95;;;16.60;99.90;;;;;;5058301;28;20458;-89
2021/07/16 03:38:16;;;;;;;22.25;9.88;;;16.60;99.90;;;;;;5058758;28;20131;-87
2021/07/16 03:41:07;;;;;;;23.42;11.38;;;16.70;99.90;;;;;;5056386;28;20625;-88
2021/07/16 03:43:54;;;;;;;22.77;11.20;;;16.70;99.90;;;;;;5072389;28;20124;-87
2021/07/16 03:46:41;;;;;;;16.77;9.70;;;16.70;99.90;;;;;;5057554;28;20471;-88
2021/07/16 03:49:29;;;;;;;26.20;11.25;;;16.80;99.90;;;;;;5056886;28;20456;-88
2021/07/16 03:52:16;;;;;;;21.55;9.73;;;16.80;99.90;;;;;;5057616;28;20055;-89
2021/07/16 03:55:08;;;;;;;20.98;10.63;;;16.60;99.90;;;;;;5058108;28;20449;-90
2021/07/16 03:57:55;;;;;;;23.83;10.68;;;16.60;99.90;;;;;;5057984;28;20123;-90
2021/07/16 04:00:42;;;;;;;21.10;10.27;;;16.70;99.90;;;;;;5072995;28;20044;-88
2021/07/16 04:03:29;;;;;;;24.23;10.90;;;16.60;99.90;;;;;;5057213;28;20496;-90
2021/07/16 04:06:16;;;;;;;21.17;9.57;;;16.70;99.90;;;;;;5056887;28;20048;-85
2021/07/16 04:09:20;;;;;;;20.20;10.00;;;16.70;99.90;;;;;;5060135;28;20075;-86
2021/07/16 04:12:10;;;;;;;26.15;10.30;;;16.70;99.90;;;;;;5059899;28;20124;-85
2021/07/16 04:14:57;;;;;;;27.02;11.05;;;16.60;99.90;;;;;;5060544;28;20478;-88
2021/07/16 04:17:45;;;;;;;25.00;10.63;;;16.60;99.90;;;;;;5062262;28;20044;-91
2021/07/16 04:20:33;;;;;;;22.48;10.68;;;16.60;99.90;;;;;;5060464;28;20538;-88
2021/07/16 04:23:21;;;;;;;27.77;11.95;;;16.50;99.90;;;;;;5061263;28;20131;-86
2021/07/16 04:26:08;;;;;;;24.60;10.95;;;16.50;99.90;;;;;;5061659;28;20045;-87
2021/07/16 04:28:56;;;;;;;29.67;10.75;;;16.40;99.90;;;;;;5059718;28;20422;-86
2021/07/16 04:31:43;;;;;;;24.55;10.57;;;16.50;99.90;;;;;;5060755;28;20469;-84
2021/07/16 04:34:32;;;;;;;26.02;10.90;;;16.50;99.90;;;;;;5060434;28;20129;-86
2021/07/16 04:37:19;;;;;;;32.10;12.07;;;16.60;99.90;;;;;;5060389;28;20051;-89
2021/07/16 04:40:10;;;;;;;31.35;11.93;;;16.70;99.90;;;;;;5062166;28;20076;-90
2021/07/16 04:42:57;;;;;;;29.95;11.40;;;16.60;99.90;;;;;;5060670;28;20041;-89
2021/07/16 04:45:45;;;;;;;26.33;10.93;;;16.80;99.90;;;;;;5060649;28;20052;-91
2021/07/16 04:48:33;;;;;;;26.92;10.50;;;16.80;99.90;;;;;;5059621;28;20087;-84
2021/07/16 04:51:24;;;;;;;25.73;11.05;;;16.80;99.90;;;;;;5061161;28;20102;-89
2021/07/16 04:54:16;;;;;;;27.58;10.65;;;16.80;99.90;;;;;;5060126;28;20049;-88
2021/07/16 04:57:03;;;;;;;25.88;10.70;;;16.80;99.90;;;;;;5060625;28;20107;-90
2021/07/16 04:59:50;;;;;;;25.45;10.93;;;16.90;99.90;;;;;;5060123;28;20055;-89
2021/07/16 05:02:39;;;;;;;25.25;11.02;;;16.80;99.90;;;;;;5060603;28;20426;-89
2021/07/16 05:05:27;;;;;;;23.88;9.85;;;16.90;99.90;;;;;;5076336;28;20055;-88
2021/07/16 05:08:14;;;;;;;24.75;10.43;;;16.90;99.90;;;;;;5075484;28;20044;-89
2021/07/16 05:11:01;;;;;;;28.95;10.50;;;17.00;99.90;;;;;;5081603;28;20048;-87
2021/07/16 05:13:49;;;;;;;24.38;10.73;;;17.00;99.90;;;;;;5073302;28;20095;-85
2021/07/16 05:16:36;;;;;;;30.55;11.05;;;16.90;99.90;;;;;;5077711;28;20040;-89
2021/07/16 05:19:24;;;;;;;24.13;11.27;;;16.80;99.90;;;;;;5079059;28;20414;-88
2021/07/16 05:22:11;;;;;;;27.88;11.13;;;16.90;99.90;;;;;;5079594;28;20502;-88
2021/07/16 05:24:59;;;;;;;28.20;11.32;;;16.90;99.90;;;;;;5079669;28;20036;-88
2021/07/16 05:27:46;;;;;;;24.55;10.68;;;16.90;99.90;;;;;;5078638;28;20048;-88
2021/07/16 05:30:33;;;;;;;31.60;10.35;;;16.90;99.90;;;;;;5093940;28;20139;-86
2021/07/16 05:33:21;;;;;;;26.25;10.75;;;17.00;99.90;;;;;;5079261;28;20149;-88
2021/07/16 05:36:09;;;;;;;23.83;10.80;;;16.90;99.90;;;;;;5079714;23;20139;-83
2021/07/16 05:39:02;;;;;;;21.63;10.50;;;16.80;99.90;;;;;;5058522;28;20107;-83
2021/07/16 05:41:49;;;;;;;25.48;10.48;;;16.90;99.90;;;;;;5074423;28;20048;-83
2021/07/16 05:44:36;;;;;;;24.35;10.13;;;17.00;99.90;;;;;;5058792;28;20127;-83
2021/07/16 05:47:23;;;;;;;29.05;10.70;;;16.90;99.90;;;;;;5071621;28;20174;-83
2021/07/16 05:50:11;;;;;;;22.60;9.85;;;17.10;99.90;;;;;;5091182;23;20070;-85
2021/07/16 05:52:59;;;;;;;26.42;10.55;;;17.10;99.90;;;;;;5072409;28;20044;-84
2021/07/16 05:55:47;;;;;;;28.10;9.75;;;17.10;99.90;;;;;;5071832;28;20051;-83
2021/07/16 05:58:34;;;;;;;25.70;10.88;;;17.10;99.90;;;;;;5056586;28;20054;-82
2021/07/16 06:01:21;;;;;;;30.80;10.88;;;17.10;99.90;;;;;;5051727;28;20128;-84
2021/07/16 06:04:11;;;;;;;23.35;11.07;;;17.20;99.90;;;;;;5051942;28;20123;-85
2021/07/16 06:06:58;;;;;;;24.83;10.45;;;17.10;99.90;;;;;;5052366;28;20051;-85
2021/07/16 06:09:47;;;;;;;30.58;11.27;;;17.10;99.90;;;;;;5057799;28;20059;-84
2021/07/16 06:12:35;;;;;;;20.88;10.75;;;17.20;99.90;;;;;;5057719;28;20055;-86
2021/07/16 06:15:23;;;;;;;17.65;10.07;;;17.30;99.90;;;;;;5032387;28;20126;-84
2021/07/16 06:18:10;;;;;;;29.90;10.27;;;17.50;99.90;;;;;;5032155;28;20427;-83
2021/07/16 06:20:57;;;;;;;27.38;10.32;;;17.60;99.90;;;;;;5017676;28;20164;-84
2021/07/16 06:23:46;;;;;;;23.08;9.07;;;17.60;99.90;;;;;;5030311;28;20052;-83
2021/07/16 06:26:35;;;;;;;21.73;9.20;;;17.60;99.90;;;;;;5031650;28;20595;-84
2021/07/16 06:29:22;;;;;;;22.77;9.55;;;17.50;99.90;;;;;;5017696;28;20068;-82
2021/07/16 06:32:10;;;;;;;20.90;8.77;;;17.60;99.90;;;;;;5032449;28;20042;-83
2021/07/16 06:34:57;;;;;;;25.50;10.00;;;17.60;99.90;;;;;;5032336;28;20117;-85
2021/07/16 06:37:44;;;;;;;27.90;9.40;;;17.70;99.90;;;;;;5032176;28;20053;-84
2021/07/16 06:40:31;;;;;;;28.17;9.23;;;17.70;99.90;;;;;;5017082;28;20525;-82
2021/07/16 06:43:19;;;;;;;23.92;8.98;;;17.60;99.90;;;;;;5030778;28;20052;-86
2021/07/16 06:46:08;;;;;;;21.95;9.18;;;17.60;99.90;;;;;;5032566;28;20056;-84
2021/07/16 06:48:55;;;;;;;24.63;10.10;;;17.40;99.90;;;;;;5032515;28;20046;-85
2021/07/16 06:51:42;;;;;;;27.70;9.70;;;17.30;99.90;;;;;;5033616;28;20165;-86
2021/07/16 06:54:30;;;;;;;23.52;9.05;;;17.30;99.90;;;;;;5018225;28;20048;-83
2021/07/16 06:57:17;;;;;;;26.63;9.55;;;17.50;99.90;;;;;;5032254;28;20087;-84
2021/07/16 07:00:07;;;;;;;26.42;9.18;;;17.40;99.90;;;;;;5031618;28;20045;-84
2021/07/16 07:02:54;;;;;;;23.27;8.30;;;17.40;99.90;;;;;;5031719;28;20041;-86
2021/07/16 07:05:41;;;;;;;19.83;8.25;;;17.40;99.90;;;;;;5031624;28;20426;-84
2021/07/16 07:08:28;;;;;;;27.23;9.02;;;17.60;99.90;;;;;;5030955;28;20056;-83
2021/07/16 07:11:15;;;;;;;28.08;8.82;;;17.60;99.90;;;;;;5031457;28;20057;-83
2021/07/16 07:14:03;;;;;;;22.58;8.15;;;17.90;99.90;;;;;;5037837;28;20120;-83
2021/07/16 07:16:51;;;;;;;17.85;8.30;;;18.30;99.90;;;;;;5050899;28;20045;-84
2021/07/16 07:19:39;;;;;;;20.57;8.17;;;20.00;99.90;;;;;;5049084;28;20521;-83
2021/07/16 07:22:26;;;;;;;18.95;7.78;;;18.10;99.90;;;;;;5049403;28;20037;-83
2021/07/16 07:25:13;;;;;;;22.50;7.53;;;18.10;99.90;;;;;;5049776;28;20052;-84
2021/07/16 07:28:00;;;;;;;24.15;7.93;;;17.90;99.90;;;;;;5049632;28;20052;-85
2021/07/16 07:30:47;;;;;;;23.85;8.43;;;17.90;99.90;;;;;;5036222;28;20159;-83
2021/07/16 07:33:36;;;;;;;31.00;7.65;;;18.10;99.90;;;;;;5036514;28;20052;-86
2021/07/16 07:36:23;;;;;;;25.38;7.80;;;18.20;99.90;;;;;;5035848;28;20564;-83
2021/07/16 07:39:10;;;;;;;22.40;7.68;;;18.10;99.90;;;;;;5036097;28;20060;-85
2021/07/16 07:41:57;;;;;;;25.73;8.65;;;18.00;99.90;;;;;;5052727;28;20051;-84
2021/07/16 07:44:44;;;;;;;21.15;7.47;;;17.90;99.90;;;;;;5053646;28;20049;-86
2021/07/16 07:47:33;;;;;;;28.30;7.78;;;18.10;99.90;;;;;;5054132;28;20041;-81
2021/07/16 07:50:24;;;;;;;25.10;7.65;;;17.90;99.90;;;;;;5053254;28;20506;-84
2021/07/16 07:53:11;;;;;;;23.43;7.80;;;17.70;99.90;;;;;;5054336;28;20120;-85
2021/07/16 07:55:58;;;;;;;25.15;8.20;;;17.70;99.90;;;;;;5053331;28;20147;-85
2021/07/16 07:58:45;;;;;;;29.42;8.52;;;17.70;99.90;;;;;;5053271;28;20502;-84
2021/07/16 08:01:33;;;;;;;30.20;8.50;;;17.80;99.90;;;;;;5053168;28;20067;-84
2021/07/16 08:04:21;;;;;;;21.70;7.40;;;17.90;99.90;;;;;;5053419;28;20047;-83
2021/07/16 08:07:09;;;;;;;23.67;7.13;;;18.10;99.90;;;;;;5053057;28;20045;-86
2021/07/16 08:09:56;;;;;;;22.95;7.18;;;18.10;99.90;;;;;;5053092;28;20124;-84
2021/07/16 08:12:44;;;;;;;35.50;8.52;;;18.00;99.90;;;;;;5053896;28;20045;-85
2021/07/16 08:15:31;;;;;;;29.52;7.43;;;18.00;99.90;;;;;;5033166;28;20128;-84
2021/07/16 08:18:18;;;;;;;21.52;6.97;;;18.10;99.90;;;;;;5034028;28;20082;-84
2021/07/16 08:21:06;;;;;;;25.00;7.55;;;18.10;99.90;;;;;;5032982;28;20046;-83
2021/07/16 08:23:54;;;;;;;23.92;7.20;;;18.10;99.90;;;;;;5033413;28;20469;-83
2021/07/16 08:26:43;;;;;;;25.02;7.68;;;18.20;99.90;;;;;;5032821;28;20171;-82
2021/07/16 08:29:30;;;;;;;27.40;7.57;;;18.30;99.90;;;;;;5034850;28;20056;-84
2021/07/16 08:32:17;;;;;;;27.35;7.03;;;18.30;99.90;;;;;;5034217;28;20049;-86
2021/07/16 08:35:05;;;;;;;23.08;7.22;;;18.20;99.90;;;;;;5034056;28;20046;-85
2021/07/16 08:37:52;;;;;;;25.35;6.60;;;18.20;99.90;;;;;;5034262;28;20046;-85
2021/07/16 08:40:43;;;;;;;17.85;6.28;;;18.30;99.90;;;;;;5033575;28;20105;-83
2021/07/16 08:43:33;;;;;;;22.17;6.63;;;18.40;99.90;;;;;;5033887;28;20099;-84
2021/07/16 08:46:20;;;;;;;23.98;6.57;;;18.50;99.90;;;;;;5032509;28;20056;-84
2021/07/16 08:49:08;;;;;;;21.20;6.97;;;18.70;99.90;;;;;;5032548;28;20044;-84
2021/07/16 08:51:56;;;;;;;19.77;5.95;;;18.90;99.90;;;;;;5032480;28;20566;-84
2021/07/16 08:54:49;;;;;;;17.88;5.20;;;18.80;99.90;;;;;;5032645;28;20491;-86
2021/07/16 08:57:38;;;;;;;25.15;5.60;;;18.80;99.90;;;;;;5031966;28;20503;-83
2021/07/16 09:00:26;;;;;;;19.80;5.95;;;18.80;99.90;;;;;;5033253;28;20506;-84
2021/07/16 09:03:14;;;;;;;14.73;5.50;;;18.80;99.90;;;;;;5032589;28;20124;-84
2021/07/16 09:06:01;;;;;;;16.33;5.22;;;18.60;99.90;;;;;;5032357;28;20049;-83
2021/07/16 09:08:48;;;;;;;17.25;5.10;;;18.60;99.90;;;;;;5033967;28;20077;-84
2021/07/16 09:11:38;;;;;;;19.33;5.30;;;18.60;99.90;;;;;;5033458;28;20609;-84
2021/07/16 09:14:28;;;;;;;24.33;5.97;;;18.70;99.90;;;;;;5045085;28;20182;-84
2021/07/16 09:17:16;;;;;;;;;;;18.70;99.90;;;;;;5053730;28;20079;-84
2021/07/16 09:20:04;;;;;;;24.63;5.57;;;20.20;99.90;;;;;;5052727;28;19924;-85
2021/07/16 09:23:10;;;;;;;15.57;5.45;;;19.00;99.90;;;;;;5054638;28;20408;-84
2021/07/16 09:26:05;;;;;;;17.65;5.68;;;18.80;99.90;;;;;;5037767;28;20053;-84
2021/07/16 09:28:52;;;;;;;19.92;5.88;;;18.80;99.90;;;;;;5037745;28;20041;-82
2021/07/16 09:31:41;;;;;;;19.85;5.30;;;18.80;99.90;;;;;;5038789;28;20052;-84
2021/07/16 09:34:28;;;;;;;20.50;6.07;;;18.90;99.90;;;;;;5038742;28;20098;-84
2021/07/16 09:37:15;;;;;;;23.73;5.45;;;20.30;99.90;;;;;;5038179;28;20059;-84
2021/07/16 09:40:03;;;;;;;17.77;5.15;;;18.90;99.90;;;;;;5052817;28;20049;-84
2021/07/16 09:43:00;;;;;;;15.88;5.22;;;18.90;99.90;;;;;;5039527;28;20410;-84
2021/07/16 09:46:01;;;;;;;15.05;4.80;;;18.90;99.90;;;;;;5038816;28;20509;-85
2021/07/16 09:48:49;;;;;;;19.15;5.20;;;18.90;99.90;;;;;;5037427;28;20123;-83
2021/07/16 09:51:39;;;;;;;17.05;4.97;;;18.90;99.90;;;;;;5038794;28;20055;-84
2021/07/16 09:54:27;;;;;;;19.63;5.00;;;18.80;99.90;;;;;;5051989;28;20037;-82
2021/07/16 09:57:40;;;;;;;16.60;5.30;;;18.70;99.90;;;;;;5038429;28;20498;-84
2021/07/16 10:00:27;;;;;;;16.70;5.20;;;18.60;99.90;;;;;;5038567;28;20048;-85
2021/07/16 10:03:15;;;;;;;17.13;5.13;;;18.80;99.90;;;;;;5052197;28;20512;-85
2021/07/16 10:06:03;;;;;;;23.02;5.38;;;18.90;99.90;;;;;;5051180;28;20044;-83
2021/07/16 10:08:50;;;;;;;18.23;5.10;;;18.80;99.90;;;;;;5038133;28;20045;-84
2021/07/16 10:11:38;;;;;;;13.77;4.47;;;18.80;99.90;;;;;;5052272;28;20059;-83
2021/07/16 10:14:27;;;;;;;14.77;4.88;;;19.00;99.90;;;;;;5051813;28;20139;-85
2021/07/16 10:17:14;;;;;;;16.85;5.18;;;19.00;99.90;;;;;;5037664;28;20088;-85
2021/07/16 10:20:03;;;;;;;18.80;5.13;;;18.80;99.90;;;;;;5038632;28;20506;-84
2021/07/16 10:22:52;;;;;;;19.92;4.80;;;18.90;99.90;;;;;;5038583;28;20159;-84
2021/07/16 10:25:39;;;;;;;20.63;4.63;;;19.00;99.90;;;;;;5036809;28;20183;-84
2021/07/16 10:28:31;;;;;;;17.85;4.80;;;18.90;99.90;;;;;;5039127;28;20055;-83
2021/07/16 10:31:39;;;;;;;15.68;5.30;;;18.80;99.90;;;;;;5054025;28;20060;-85
2021/07/16 10:34:35;;;;;;;16.17;4.78;;;19.10;99.90;;;;;;5054438;28;20063;-83
2021/07/16 10:37:31;;;;;;;15.98;4.68;;;19.40;99.90;;;;;;5041635;28;20045;-85
2021/07/16 10:40:43;;;;;;;15.10;4.35;;;19.90;99.90;;;;;;5048759;28;20130;-86
2021/07/16 10:43:40;;;;;;;17.00;3.83;;;20.20;99.90;;;;;;5039419;28;20048;-84
2021/07/16 10:46:31;;;;;;;11.55;3.63;;;20.10;99.90;;;;;;5038849;28;20128;-83
2021/07/16 10:49:19;;;;;;;13.98;4.10;;;20.30;99.90;;;;;;5038623;28;20179;-83
2021/07/16 10:52:07;;;;;;;15.65;3.95;;;20.20;99.90;;;;;;5037629;28;20045;-84
2021/07/16 10:54:54;;;;;;;9.95;3.22;;;20.40;99.90;;;;;;5050230;28;20516;-84
2021/07/16 10:57:43;;;;;;;16.15;4.35;;;20.60;99.90;;;;;;5037170;28;20127;-84
2021/07/16 11:00:47;;;;;;;16.35;4.32;;;20.20;99.90;;;;;;5038022;28;20526;-84
2021/07/16 11:03:39;;;;;;;13.90;3.80;;;20.10;99.90;;;;;;5035585;28;20037;-84
2021/07/16 11:06:52;;;;;;;13.85;4.03;;;20.90;99.90;;;;;;5052268;28;20057;-84
2021/07/16 11:09:46;;;;;;;8.98;3.03;;;20.40;99.90;;;;;;5036737;28;20086;-84
2021/07/16 11:12:35;;;;;;;10.23;3.63;;;20.40;99.90;;;;;;5051037;28;20052;-83
2021/07/16 11:15:29;;;;;;;10.70;2.95;;;20.70;99.90;;;;;;5038722;28;20175;-84
2021/07/16 11:18:26;;;;;;;10.57;3.28;;;21.10;99.90;;;;;;5056586;28;20561;-85
2021/07/16 11:21:13;;;;;;;10.15;3.45;;;20.90;99.90;;;;;;5057203;28;20041;-85
2021/07/16 11:24:01;;;;;;;11.23;3.20;;;21.30;99.90;;;;;;5058798;28;20124;-84
2021/07/16 11:26:50;;;;;;;13.38;3.05;;;21.30;99.90;;;;;;5056616;28;20502;-85
2021/07/16 11:29:39;;;;;;;8.35;2.95;;;21.60;99.90;;;;;;5055590;28;20668;-84
2021/07/16 11:32:27;;;;;;;11.48;2.90;;;21.90;99.90;;;;;;5057561;28;20068;-84
2021/07/16 11:35:14;;;;;;;11.65;3.22;;;22.20;99.90;;;;;;5057314;28;20163;-84
2021/07/16 11:38:06;;;;;;;11.02;3.10;;;22.10;99.90;;;;;;5043192;28;20147;-85
2021/07/16 11:40:55;;;;;;;7.65;2.55;;;21.70;99.90;;;;;;5058185;28;20425;-84
2021/07/16 11:43:49;;;;;;;9.38;2.70;;;22.90;99.90;;;;;;5057946;28;20037;-85
2021/07/16 11:46:36;;;;;;;8.77;2.50;;;22.00;99.90;;;;;;5056064;28;20041;-84
2021/07/16 11:51:58;;;;;;;9.10;2.85;;;21.40;99.90;;;;;;5076340;28;20055;-86
2021/07/16 11:54:46;;;;;;;9.57;2.83;;;21.30;99.90;;;;;;5063845;28;20123;-86
2021/07/16 11:57:44;;;;;;;9.38;3.03;;;21.10;99.90;;;;;;5090724;28;20187;-86
2021/07/16 12:00:33;;;;;;;10.93;2.80;;;21.30;99.90;;;;;;5071599;28;20047;-87
2021/07/16 12:03:21;;;;;;;13.68;3.00;;;21.30;99.90;;;;;;5082723;28;20043;-86
2021/07/16 12:06:09;;;;;;;12.18;3.15;;;21.50;99.90;;;;;;5083555;28;20048;-86
2021/07/16 12:08:56;;;;;;;10.25;2.83;;;21.80;99.90;;;;;;5083021;28;20058;-85
2021/07/16 12:11:43;;;;;;;10.60;2.97;;;22.10;99.90;;;;;;5083418;28;20424;-86
2021/07/16 12:14:54;;;;;;;8.75;2.97;;;22.00;99.90;;;;;;5067535;28;20049;-84
2021/07/16 12:17:53;;;;;;;11.75;3.17;;;21.90;99.90;;;;;;5062494;28;20048;-86
2021/07/16 12:20:41;;;;;;;14.18;3.50;;;21.80;99.90;;;;;;5071946;28;20046;-86
2021/07/16 12:23:28;;;;;;;13.20;3.45;;;22.00;99.90;;;;;;5083376;28;20048;-86
2021/07/16 12:26:18;;;;;;;12.50;3.03;;;22.10;99.90;;;;;;5082916;28;20048;-85
2021/07/16 12:29:10;;;;;;;12.63;3.08;;;22.50;99.90;;;;;;5079275;28;20048;-85
2021/07/16 12:31:58;;;;;;;10.32;3.58;;;23.10;99.90;;;;;;5080504;28;20056;-87
2021/07/16 12:34:46;;;;;;;;;;;23.20;99.90;;;;;;5080698;28;20182;-87
2021/07/16 12:37:37;;;;;;;12.02;3.28;;;23.30;99.90;;;;;;5079891;28;20004;-84
2021/07/16 12:40:25;;;;;;;19.15;3.92;;;22.70;99.90;;;;;;5079998;28;20182;-86
2021/07/16 12:43:14;;;;;;;12.48;3.47;;;22.70;99.90;;;;;;5079483;28;20134;-87
2021/07/16 12:46:09;;;;;;;12.15;3.53;;;22.60;99.90;;;;;;5082134;28;20429;-86
2021/07/16 12:49:08;;;;;;;15.90;4.03;;;22.40;99.90;;;;;;5079872;28;20047;-86
2021/07/16 12:52:06;;;;;;;18.88;4.07;;;22.20;99.90;;;;;;5093945;28;20593;-86
2021/07/16 12:55:15;;;;;;;13.82;3.97;;;22.10;99.90;;;;;;5078864;28;20162;-86
2021/07/16 12:58:04;;;;;;;13.38;3.40;;;22.50;99.90;;;;;;5078383;28;20134;-87
2021/07/16 13:00:56;;;;;;;12.77;4.00;;;22.70;99.90;;;;;;5093095;28;20543;-84
2021/07/16 13:03:44;;;;;;;13.65;3.97;;;22.40;99.90;;;;;;5079433;28;20040;-87
2021/07/16 13:06:33;;;;;;;17.92;3.90;;;23.60;99.90;;;;;;5078747;28;20408;-84
2021/07/16 13:09:23;;;;;;;13.73;4.00;;;22.60;99.90;;;;;;5079311;28;20122;-86
2021/07/16 13:12:22;;;;;;;13.35;3.47;;;22.90;99.90;;;;;;5093297;28;20278;-85
2021/07/16 13:15:12;;;;;;;12.25;3.88;;;22.90;99.90;;;;;;5078552;28;20032;-86
2021/07/16 13:18:06;;;;;;;13.25;4.10;;;23.10;99.90;;;;;;5092281;28;20127;-86
2021/07/16 13:20:53;;;;;;;13.20;3.63;;;22.70;99.90;;;;;;5077044;28;20091;-86
2021/07/16 13:23:42;;;;;;;15.32;3.70;;;22.80;99.90;;;;;;5077284;28;20044;-86
2021/07/16 13:26:30;;;;;;;17.52;4.22;;;23.10;99.90;;;;;;5076919;28;20461;-86
2021/07/16 13:29:18;;;;;;;17.55;4.13;;;23.20;99.90;;;;;;5078928;28;20122;-86
2021/07/16 13:32:06;;;;;;;14.25;3.50;;;22.70;99.90;;;;;;5079487;28;20129;-83
2021/07/16 13:34:53;;;;;;;19.23;4.22;;;22.70;99.90;;;;;;5078553;28;20059;-86
2021/07/16 13:37:40;;;;;;;16.13;4.22;;;22.80;99.90;;;;;;5077393;28;20089;-86
2021/07/16 13:40:29;;;;;;;18.30;3.75;;;22.90;99.90;;;;;;5076553;28;20415;-85
2021/07/16 13:43:17;;;;;;;14.65;3.67;;;23.10;99.90;;;;;;5077679;28;20048;-86
2021/07/16 13:46:04;;;;;;;16.65;4.15;;;23.00;99.90;;;;;;5091859;28;20047;-86
2021/07/16 13:48:51;;;;;;;13.00;3.50;;;23.10;99.90;;;;;;5076735;28;20048;-87
2021/07/16 13:51:38;;;;;;;18.65;4.00;;;23.20;99.90;;;;;;5077476;28;20488;-86
2021/07/16 13:54:27;;;;;;;16.50;3.33;;;23.30;99.90;;;;;;5078241;28;20043;-86
2021/07/16 13:57:20;;;;;;;14.85;3.83;;;23.30;99.90;;;;;;5077765;28;20044;-84
2021/07/16 14:00:08;;;;;;;15.38;4.70;;;23.30;99.90;;;;;;5077151;28;20048;-86
2021/07/16 14:02:55;;;;;;;13.88;4.07;;;22.80;99.90;;;;;;5076939;28;20138;-86
2021/07/16 14:05:42;;;;;;;11.15;3.78;;;22.50;99.90;;;;;;5077557;28;20047;-87
2021/07/16 14:08:29;;;;;;;12.80;4.00;;;22.60;99.90;;;;;;5076895;28;20428;-86
2021/07/16 14:11:17;;;;;;;16.10;4.43;;;22.70;99.90;;;;;;5075906;28;20044;-86
2021/07/16 14:14:06;;;;;;;14.75;4.53;;;22.80;99.90;;;;;;5076184;28;20035;-85
2021/07/16 14:16:54;;;;;;;14.90;4.32;;;22.70;99.90;;;;;;5076586;28;20414;-85
2021/07/16 14:19:41;;;;;;;19.00;4.65;;;22.70;99.90;;;;;;5092449;28;20040;-86
2021/07/16 14:22:28;;;;;;;15.75;4.70;;;22.50;99.90;;;;;;5077274;28;20051;-86
2021/07/16 14:25:16;;;;;;;18.30;4.70;;;22.20;99.90;;;;;;5076758;28;20047;-87
2021/07/16 14:28:03;;;;;;;20.75;5.32;;;22.10;99.90;;;;;;5078454;28;20044;-86
2021/07/16 14:30:52;;;;;;;21.58;5.13;;;21.80;99.90;;;;;;5078026;28;20044;-86